createdAt,value
2023-03-22T00:00:15.367Z,3.07
2023-03-22T00:02:41.926Z,3.58
2023-03-22T00:05:09.062Z,4.00
2023-03-22T00:07:35.550Z,3.90
2023-03-22T00:10:02.076Z,3.17
2023-03-22T00:12:28.556Z,3.10
2023-03-22T00:14:55.119Z,2.70
2023-03-22T00:17:22.994Z,3.30
2023-03-22T00:19:49.748Z,3.00
2023-03-22T00:22:16.558Z,3.28
2023-03-22T00:24:43.207Z,3.47
2023-03-22T00:27:09.751Z,2.95
2023-03-22T00:29:36.283Z,2.88
2023-03-22T00:32:04.217Z,3.00
2023-03-22T00:34:32.624Z,2.70
2023-03-22T00:36:59.909Z,3.33
2023-03-22T00:39:27.032Z,2.67
2023-03-22T00:41:53.678Z,2.45
2023-03-22T00:44:20.387Z,2.58
2023-03-22T00:46:46.922Z,2.75
2023-03-22T00:49:14.224Z,2.57
2023-03-22T00:51:40.918Z,2.20
2023-03-22T00:54:07.478Z,2.50
2023-03-22T00:56:37.557Z,2.60
2023-03-22T00:59:12.776Z,2.35
2023-03-22T01:01:40.862Z,1.93
2023-03-22T01:04:07.453Z,2.70
2023-03-22T01:06:34.857Z,2.30
2023-03-22T01:09:01.683Z,2.20
2023-03-22T01:11:28.329Z,2.70
2023-03-22T01:13:55.697Z,2.40
2023-03-22T01:16:22.395Z,2.25
2023-03-22T01:18:49.008Z,2.60
2023-03-22T01:21:15.651Z,1.90
2023-03-22T01:23:42.223Z,1.83
2023-03-22T01:26:08.913Z,2.07
2023-03-22T01:28:36.580Z,1.90
2023-03-22T01:31:04.066Z,2.10
2023-03-22T01:33:31.330Z,1.50
2023-03-22T01:35:58.534Z,1.48
2023-03-22T01:38:25.691Z,2.07
2023-03-22T01:41:00.264Z,1.52
2023-03-22T01:43:29.535Z,1.70
2023-03-22T01:45:57.703Z,1.50
2023-03-22T01:48:36.125Z,1.98
2023-03-22T01:51:04.589Z,1.50
2023-03-22T01:53:43.777Z,1.48
2023-03-22T01:56:12.041Z,1.60
2023-03-22T01:58:40.106Z,1.40
2023-03-22T02:01:10.520Z,2.05
2023-03-22T02:04:20.029Z,1.60
2023-03-22T02:06:47.617Z,1.77
2023-03-22T02:09:18.335Z,1.60
2023-03-22T02:11:51.215Z,2.00
2023-03-22T02:14:40.294Z,2.72
2023-03-22T02:17:37.253Z,2.10
2023-03-22T02:20:38.648Z,2.60
2023-03-22T02:23:08.212Z,2.67
2023-03-22T02:25:40.677Z,2.05
2023-03-22T02:28:36.790Z,3.20
2023-03-22T02:31:42.415Z,2.47
2023-03-22T02:34:20.184Z,2.80
2023-03-22T02:36:58.838Z,2.70
2023-03-22T02:39:37.181Z,3.10
2023-03-22T02:42:21.944Z,3.10
2023-03-22T02:44:59.211Z,3.60
2023-03-22T02:47:38.459Z,3.20
2023-03-22T02:50:18.786Z,4.10
2023-03-22T02:53:02.667Z,4.07
2023-03-22T02:55:47.851Z,3.90
2023-03-22T02:58:19.356Z,3.90
2023-03-22T03:00:47.780Z,4.85
2023-03-22T03:03:18.338Z,5.05
2023-03-22T03:05:48.574Z,4.82
2023-03-22T03:08:17.847Z,5.88
2023-03-22T03:10:45.523Z,5.43
2023-03-22T03:13:15.082Z,5.93
2023-03-22T03:15:44.028Z,6.57
2023-03-22T03:18:26.297Z,6.13
2023-03-22T03:21:20.637Z,6.30
2023-03-22T03:23:53.817Z,5.60
2023-03-22T03:26:44.904Z,6.72
2023-03-22T03:29:16.877Z,6.88
2023-03-22T03:31:52.044Z,7.47
2023-03-22T03:34:23.588Z,7.38
2023-03-22T03:37:05.083Z,6.93
2023-03-22T03:39:34.907Z,7.18
2023-03-22T03:42:02.508Z,8.15
2023-03-22T03:44:31.127Z,7.90
2023-03-22T03:46:58.489Z,9.02
2023-03-22T03:49:27.063Z,8.77
2023-03-22T03:51:55.664Z,9.18
2023-03-22T03:54:23.394Z,9.02
2023-03-22T03:56:51.127Z,10.32
2023-03-22T03:59:19.041Z,10.75
2023-03-22T04:01:51.828Z,9.70
2023-03-22T04:04:29.191Z,9.82
2023-03-22T04:07:03.016Z,9.95
2023-03-22T04:09:33.307Z,9.23
2023-03-22T04:12:22.452Z,9.55
2023-03-22T04:15:10.443Z,9.37
2023-03-22T04:17:37.804Z,9.50
2023-03-22T04:20:06.200Z,9.88
2023-03-22T04:22:34.702Z,9.45
2023-03-22T04:25:02.062Z,9.52
2023-03-22T04:27:29.215Z,8.80
2023-03-22T04:30:12.341Z,9.20
2023-03-22T04:33:08.205Z,8.85
2023-03-22T04:35:57.312Z,8.40
2023-03-22T04:38:30.621Z,8.82
2023-03-22T04:40:57.863Z,8.43
2023-03-22T04:43:46.976Z,7.93
2023-03-22T04:46:15.575Z,8.50
2023-03-22T04:48:48.014Z,8.10
2023-03-22T04:51:15.634Z,7.40
2023-03-22T04:54:00.604Z,6.63
2023-03-22T04:56:27.400Z,6.78
2023-03-22T04:58:54.236Z,7.80
2023-03-22T05:01:20.884Z,6.95
2023-03-22T05:03:55.938Z,6.57
2023-03-22T05:06:23.368Z,6.87
2023-03-22T05:08:58.916Z,6.25
2023-03-22T05:11:27.923Z,6.78
2023-03-22T05:14:15.586Z,6.18
2023-03-22T05:16:42.218Z,6.72
2023-03-22T05:19:13.790Z,6.40
2023-03-22T05:21:44.145Z,6.25
2023-03-22T05:24:12.025Z,6.38
2023-03-22T05:26:42.322Z,6.65
2023-03-22T05:29:11.081Z,5.50
2023-03-22T05:32:00.684Z,6.10
2023-03-22T05:34:35.344Z,5.22
2023-03-22T05:37:10.183Z,5.32
2023-03-22T05:39:50.695Z,5.03
2023-03-22T05:42:17.677Z,4.97
2023-03-22T05:44:44.283Z,5.83
2023-03-22T05:47:13.081Z,5.13
2023-03-22T05:49:50.490Z,6.05
2023-03-22T05:52:17.785Z,5.45
2023-03-22T05:54:55.970Z,4.63
2023-03-22T05:57:22.554Z,5.20
2023-03-22T05:59:49.189Z,5.13
2023-03-22T06:02:23.091Z,4.93
2023-03-22T06:04:50.204Z,4.85
2023-03-22T06:07:17.686Z,4.65
2023-03-22T06:09:51.902Z,4.60
2023-03-22T06:12:47.555Z,5.00
2023-03-22T06:15:23.930Z,4.68
2023-03-22T06:18:11.307Z,4.40
2023-03-22T06:20:42.502Z,4.80
2023-03-22T06:23:20.331Z,4.07
2023-03-22T06:25:48.984Z,4.53
2023-03-22T06:28:17.041Z,4.90
2023-03-22T06:30:52.702Z,3.88
2023-03-22T06:33:19.461Z,4.20
2023-03-22T06:35:51.288Z,3.37
2023-03-22T06:38:30.585Z,3.95
2023-03-22T06:40:57.593Z,3.97
2023-03-22T06:43:24.362Z,3.30
2023-03-22T06:45:57.400Z,3.38
2023-03-22T06:48:29.897Z,3.63
2023-03-22T06:51:01.890Z,3.70
2023-03-22T06:53:34.428Z,3.65
2023-03-22T06:56:02.891Z,3.30
2023-03-22T06:58:44.079Z,3.20
2023-03-22T07:01:14.051Z,3.20
2023-03-22T07:03:41.049Z,3.40
2023-03-22T07:06:13.209Z,3.10
2023-03-22T07:08:43.114Z,2.92
2023-03-22T07:11:12.047Z,2.88
2023-03-22T07:13:38.892Z,2.90
2023-03-22T07:16:11.778Z,2.55
2023-03-22T07:18:51.590Z,2.58
2023-03-22T07:21:18.421Z,2.08
2023-03-22T07:23:50.240Z,2.40
2023-03-22T07:26:19.479Z,2.57
2023-03-22T07:28:48.686Z,2.40
2023-03-22T07:31:15.871Z,2.10
2023-03-22T07:33:54.735Z,2.15
2023-03-22T07:36:25.742Z,2.30
2023-03-22T07:38:53.881Z,2.03
2023-03-22T07:41:30.286Z,2.13
2023-03-22T07:44:23.421Z,1.70
2023-03-22T07:47:13.164Z,2.00
2023-03-22T07:49:45.724Z,1.95
2023-03-22T07:52:19.398Z,2.20
2023-03-22T07:54:47.184Z,1.98
2023-03-22T07:57:13.876Z,1.80
2023-03-22T07:59:48.540Z,2.25
2023-03-22T08:02:16.124Z,2.22
2023-03-22T08:04:52.683Z,2.47
2023-03-22T08:07:42.580Z,2.13
2023-03-22T08:10:11.247Z,2.20
2023-03-22T08:12:41.003Z,2.40
2023-03-22T08:15:16.542Z,2.42
2023-03-22T08:17:43.797Z,2.73
2023-03-22T08:20:18.720Z,2.17
2023-03-22T08:22:51.451Z,2.13
2023-03-22T08:25:21.707Z,2.20
2023-03-22T08:27:48.608Z,2.80
2023-03-22T08:30:15.737Z,2.33
2023-03-22T08:32:43.640Z,2.40
2023-03-22T08:35:10.875Z,2.78
2023-03-22T08:37:37.775Z,2.22
2023-03-22T08:40:09.030Z,2.22
2023-03-22T08:42:43.513Z,2.53
2023-03-22T08:45:10.580Z,2.10
2023-03-22T08:47:44.677Z,2.60
2023-03-22T08:50:12.832Z,2.80
2023-03-22T08:52:47.413Z,2.55
2023-03-22T08:55:26.171Z,3.03
2023-03-22T08:58:12.945Z,2.90
2023-03-22T09:00:53.172Z,3.10
2023-03-22T09:03:38.943Z,2.53
2023-03-22T09:06:09.806Z,2.33
2023-03-22T09:08:38.879Z,2.97
2023-03-22T09:11:11.778Z,2.50
2023-03-22T09:13:38.788Z,2.67
2023-03-22T09:16:06.892Z,3.17
2023-03-22T09:18:33.515Z,2.90
2023-03-22T09:21:04.435Z,2.67
2023-03-22T09:23:39.134Z,2.50
2023-03-22T09:26:09.082Z,2.50
2023-03-22T09:28:36.854Z,2.40
2023-03-22T09:31:09.800Z,2.80
2023-03-22T09:33:38.776Z,2.50
2023-03-22T09:36:05.723Z,2.55
2023-03-22T09:38:33.964Z,2.40
2023-03-22T09:41:12.974Z,2.50
2023-03-22T09:43:43.870Z,2.25
2023-03-22T09:46:21.584Z,2.47
2023-03-22T09:48:52.057Z,2.58
2023-03-22T09:51:37.439Z,2.45
2023-03-22T09:54:04.202Z,2.40
2023-03-22T09:56:32.813Z,2.20
2023-03-22T09:59:05.239Z,2.20
2023-03-22T10:01:47.257Z,2.30
2023-03-22T10:04:44.868Z,2.40
2023-03-22T10:07:27.394Z,2.40
2023-03-22T10:10:18.238Z,2.22
2023-03-22T10:12:53.957Z,2.00
2023-03-22T10:15:43.306Z,2.45
2023-03-22T10:18:16.272Z,2.25
2023-03-22T10:21:02.777Z,2.65
2023-03-22T10:23:44.637Z,1.98
2023-03-22T10:26:21.282Z,2.07
2023-03-22T10:28:54.935Z,2.10
2023-03-22T10:31:21.674Z,2.20
2023-03-22T10:34:13.384Z,2.45
2023-03-22T10:36:41.235Z,2.08
2023-03-22T10:39:18.588Z,2.43
2023-03-22T10:41:46.881Z,3.15
2023-03-22T10:44:18.437Z,2.63
2023-03-22T10:46:46.069Z,2.45
2023-03-22T10:49:39.120Z,2.75
2023-03-22T10:52:30.600Z,2.27
2023-03-22T10:55:02.363Z,2.15
2023-03-22T10:57:30.581Z,2.05
2023-03-22T10:59:57.910Z,1.95
2023-03-22T11:02:29.273Z,2.63
2023-03-22T11:05:01.955Z,2.97
2023-03-22T11:07:33.841Z,2.85
2023-03-22T11:10:13.031Z,2.42
2023-03-22T11:12:47.314Z,3.15
2023-03-22T11:15:31.858Z,2.95
2023-03-22T11:18:01.556Z,2.53
2023-03-22T11:20:30.658Z,2.15
2023-03-22T11:23:02.553Z,2.38
2023-03-22T11:25:35.337Z,2.03
2023-03-22T11:28:05.150Z,2.35
2023-03-22T11:30:33.905Z,2.60
2023-03-22T11:33:21.085Z,2.95
2023-03-22T11:35:54.782Z,2.53
2023-03-22T11:38:29.696Z,2.92
2023-03-22T11:41:02.578Z,2.55
2023-03-22T11:43:48.519Z,1.63
2023-03-22T11:46:19.505Z,2.47
2023-03-22T11:48:49.228Z,2.40
2023-03-22T11:51:18.466Z,2.70
2023-03-22T11:53:48.133Z,2.97
2023-03-22T11:56:25.859Z,2.80
2023-03-22T11:58:55.479Z,2.33
2023-03-22T12:01:37.585Z,2.78
2023-03-22T12:04:08.766Z,2.65
2023-03-22T12:06:40.180Z,2.00
2023-03-22T12:09:19.211Z,2.43
2023-03-22T12:12:23.293Z,2.20
2023-03-22T12:15:01.557Z,2.03
2023-03-22T12:17:58.675Z,2.20
2023-03-22T12:20:58.403Z,2.30
2023-03-22T12:23:29.209Z,1.57
2023-03-22T12:26:02.512Z,1.55
2023-03-22T12:28:34.827Z,1.30
2023-03-22T12:31:03.921Z,2.40
2023-03-22T12:33:47.460Z,2.60
2023-03-22T12:36:23.085Z,2.17
2023-03-22T12:38:54.148Z,2.00
2023-03-22T12:41:34.730Z,2.00
2023-03-22T12:44:24.805Z,2.28
2023-03-22T12:46:57.255Z,1.40
2023-03-22T12:49:35.535Z,1.30
2023-03-22T12:52:17.777Z,1.55
2023-03-22T12:54:47.256Z,1.00
2023-03-22T12:57:17.521Z,1.33
2023-03-22T12:59:49.113Z,1.45
2023-03-22T13:02:17.241Z,1.23
2023-03-22T13:04:44.080Z,1.70
2023-03-22T13:07:13.802Z,1.95
2023-03-22T13:09:46.191Z,1.45
2023-03-22T13:12:16.400Z,1.60
2023-03-22T13:14:49.403Z,1.67
2023-03-22T13:17:25.499Z,1.80
2023-03-22T13:20:07.889Z,1.80
2023-03-22T13:22:37.765Z,1.70
2023-03-22T13:25:13.736Z,1.92
2023-03-22T13:27:51.312Z,1.60
2023-03-22T13:30:35.624Z,1.90
2023-03-22T13:33:14.626Z,1.40
2023-03-22T13:35:51.247Z,1.50
2023-03-22T13:38:30.393Z,1.52
2023-03-22T13:41:04.983Z,1.73
2023-03-22T13:43:45.921Z,1.67
2023-03-22T13:46:21.563Z,1.70
2023-03-22T13:48:49.017Z,1.52
2023-03-22T13:51:31.929Z,1.92
2023-03-22T13:54:29.655Z,1.80
2023-03-22T13:57:01.156Z,1.90
2023-03-22T13:59:28.425Z,1.80
2023-03-22T14:02:07.797Z,1.80
2023-03-22T14:04:57.247Z,2.13
2023-03-22T14:07:49.761Z,1.73
2023-03-22T14:11:06.030Z,1.60
2023-03-22T14:13:46.102Z,2.10
2023-03-22T14:16:21.578Z,1.73
2023-03-22T14:18:53.138Z,1.98
2023-03-22T14:21:27.943Z,2.17
